Time;durP1;ratioP1;P1;durP2;ratioP2;P2;SDS_P1;SDS_P2;PMS_P1;PMS_P2;Temp;Humidity;BMP_temperature;BMP_pressure;BME280_temperature;BME280_humidity;BME280_pressure;Samples;Min_cycle;Max_cycle;Signal;HPM_P1;HPM_P2
2022/07/03 00:01:10;;;;;;;2.13;1.70;;;;;;;16.75;87.26;100187.00;4992851;28;20748;-71
2022/07/03 00:03:35;;;;;;;2.07;1.87;;;;;;;16.78;86.62;100191.97;5000904;28;20183;-72
2022/07/03 00:06:01;;;;;;;3.87;1.70;;;;;;;16.80;86.16;100193.63;5002823;28;20210;-72
2022/07/03 00:08:26;;;;;;;4.63;1.93;;;;;;;16.71;85.97;100187.41;4994725;28;20486;-71
2022/07/03 00:10:51;;;;;;;1.77;1.67;;;;;;;16.60;87.13;100188.22;4990149;28;20226;-72
2022/07/03 00:13:16;;;;;;;1.93;1.73;;;;;;;16.67;86.74;100180.78;5002806;28;20175;-72
2022/07/03 00:15:43;;;;;;;3.03;1.77;;;;;;;16.65;86.96;100178.31;4992893;28;20203;-73
2022/07/03 00:18:09;;;;;;;2.13;1.93;;;;;;;16.66;87.56;100177.34;4992738;28;20187;-71
2022/07/03 00:20:42;;;;;;;3.80;1.80;;;;;;;16.50;88.60;100177.75;4987635;28;20293;-72
2022/07/03 00:23:13;;;;;;;2.03;1.57;;;;;;;16.55;87.99;100175.59;4992632;28;20183;-72
2022/07/03 00:25:40;;;;;;;5.93;1.97;;;;;;;16.57;87.92;100175.47;4992308;28;20227;-71
2022/07/03 00:28:06;;;;;;;3.73;2.10;;;;;;;16.58;88.30;100174.53;4992692;28;20203;-72
2022/07/03 00:30:33;;;;;;;1.83;1.50;;;;;;;16.50;88.53;100174.31;4985155;28;20685;-72
2022/07/03 00:33:01;;;;;;;2.90;1.80;;;;;;;16.49;89.97;100173.47;4992608;28;20211;-71
2022/07/03 00:35:31;;;;;;;2.57;1.60;;;;;;;16.49;90.07;100172.66;4991326;28;20286;-71
2022/07/03 00:37:56;;;;;;;1.63;1.50;;;;;;;16.40;90.47;100171.63;4994055;28;20646;-71
2022/07/03 00:40:22;;;;;;;1.60;1.50;;;;;;;16.43;90.76;100179.16;4985675;28;20227;-72
2022/07/03 00:42:51;;;;;;;2.20;1.77;;;;;;;16.48;90.28;100177.03;5002783;28;20342;-71
2022/07/03 00:45:20;;;;;;;1.90;1.70;;;;;;;16.39;91.15;100169.97;4992805;28;20208;-71
2022/07/03 00:47:45;;;;;;;2.10;1.77;;;;;;;16.35;92.31;100176.31;4992125;28;20203;-72
2022/07/03 00:50:11;;;;;;;3.43;1.97;;;;;;;16.30;93.07;100171.50;4978931;28;20305;-72
2022/07/03 00:52:40;;;;;;;2.43;1.80;;;;;;;16.22;94.31;100172.06;4992242;28;20168;-71
2022/07/03 00:55:15;;;;;;;3.23;1.73;;;;;;;16.13;95.52;100168.44;5003780;28;20241;-72
2022/07/03 00:57:45;;;;;;;2.10;1.90;;;;;;;16.10;96.49;100173.03;4992052;28;20182;-72
2022/07/03 01:00:11;;;;;;;3.70;2.20;;;;;;;16.04;97.69;100170.91;4982492;28;20215;-72
2022/07/03 01:02:40;;;;;;;2.17;1.97;;;;;;;15.94;98.15;100173.41;5007065;28;20172;-72
2022/07/03 01:05:15;;;;;;;7.67;2.07;;;;;;;15.90;98.12;100171.97;4994179;28;20314;-72
2022/07/03 01:07:54;;;;;;;6.03;2.13;;;;;;;15.86;97.53;100175.72;4978794;28;20266;-72
2022/07/03 01:10:42;;;;;;;2.73;2.23;;;;;;;15.82;97.42;100170.75;4983540;28;20197;-72
2022/07/03 01:13:40;;;;;;;2.33;2.13;;;;;;;15.74;98.15;100167.91;5001960;28;20185;-72
2022/07/03 01:16:11;;;;;;;2.87;1.90;;;;;;;15.77;98.68;100172.03;4993217;28;20348;-72
2022/07/03 01:18:53;;;;;;;3.03;2.30;;;;;;;15.68;99.85;100175.31;4992559;28;20195;-73
2022/07/03 01:22:09;;;;;;;3.07;2.00;;;;;;;15.63;100.00;100162.72;4984854;28;20230;-72
2022/07/03 01:24:51;;;;;;;1.87;1.77;;;;;;;15.64;100.00;100166.94;4970757;28;20236;-72
2022/07/03 01:27:27;;;;;;;2.93;2.27;;;;;;;15.65;100.00;100163.41;4954937;28;20191;-72
2022/07/03 01:30:05;;;;;;;4.13;2.43;;;;;;;15.68;100.00;100164.94;4954344;28;20557;-71
2022/07/03 01:32:38;;;;;;;4.57;2.10;;;;;;;15.68;100.00;100158.00;4947099;28;20602;-72
2022/07/03 01:35:06;;;;;;;2.23;2.03;;;;;;;15.68;100.00;100151.97;4954749;28;20219;-72
2022/07/03 01:37:34;;;;;;;2.77;2.10;;;;;;;15.62;100.00;100153.28;4970529;28;20195;-72
2022/07/03 01:40:03;;;;;;;2.40;2.20;;;;;;;15.48;100.00;100143.94;4941046;28;20191;-71
2022/07/03 01:42:28;;;;;;;3.63;2.37;;;;;;;15.60;100.00;100149.97;4945197;28;20258;-72
2022/07/03 01:44:58;;;;;;;3.67;2.73;;;;;;;15.64;100.00;100143.59;4970631;28;20243;-72
2022/07/03 01:47:24;;;;;;;3.30;2.47;;;;;;;15.60;100.00;100137.00;4954664;28;20211;-71
2022/07/03 01:49:52;;;;;;;4.20;2.33;;;;;;;15.58;100.00;100134.53;4953644;28;20192;-72
2022/07/03 01:52:20;;;;;;;3.83;2.53;;;;;;;15.54;100.00;100138.28;4960732;28;20224;-72
2022/07/03 01:54:47;;;;;;;3.23;2.20;;;;;;;15.51;100.00;100135.09;4965503;28;20195;-71
2022/07/03 01:57:13;;;;;;;3.50;2.83;;;;;;;15.51;100.00;100135.91;4992061;28;20658;-72
2022/07/03 01:59:38;;;;;;;2.90;2.50;;;;;;;15.55;100.00;100139.13;5006894;28;20176;-71
2022/07/03 02:02:32;;;;;;;4.17;2.53;;;;;;;15.37;100.00;100142.13;4983473;28;20234;-72
2022/07/03 02:05:07;;;;;;;5.07;2.37;;;;;;;15.40;100.00;100143.69;4992323;28;20191;-72
2022/07/03 02:07:44;;;;;;;3.37;2.57;;;;;;;15.30;100.00;100149.53;4991596;28;20175;-71
2022/07/03 02:10:10;;;;;;;2.30;2.10;;;;;;;15.28;100.00;100146.25;4982806;28;20639;-71
2022/07/03 02:12:47;;;;;;;2.77;2.07;;;;;;;15.20;100.00;100151.16;5006485;28;20198;-72
2022/07/03 02:15:18;;;;;;;2.47;2.23;;;;;;;15.20;100.00;100147.75;4992276;28;20171;-72
2022/07/03 02:17:47;;;;;;;2.90;2.00;;;;;;;15.06;100.00;100151.31;4990420;28;20554;-72
2022/07/03 02:20:16;;;;;;;4.10;2.10;;;;;;;15.06;100.00;100148.72;4981427;28;20238;-72
2022/07/03 02:22:46;;;;;;;2.40;2.20;;;;;;;15.01;100.00;100147.31;5005256;28;20183;-72
2022/07/03 02:25:25;;;;;;;3.67;2.10;;;;;;;14.92;100.00;100149.72;4991950;28;20322;-72
2022/07/03 02:27:56;;;;;;;2.43;1.67;;;;;;;14.80;100.00;100156.63;4990636;28;20179;-71
2022/07/03 02:30:24;;;;;;;3.87;2.37;;;;;;;14.82;100.00;100165.94;4981056;28;20724;-71
2022/07/03 02:32:54;;;;;;;1.93;1.77;;;;;;;14.69;100.00;100162.56;4976696;28;20569;-72
2022/07/03 02:35:31;;;;;;;2.53;1.90;;;;;;;14.45;100.00;100159.91;4990620;28;20258;-71
2022/07/03 02:38:06;;;;;;;2.70;1.97;;;;;;;14.50;100.00;100160.44;4991644;28;20271;-71
2022/07/03 02:40:40;;;;;;;2.80;2.00;;;;;;;14.35;100.00;100160.56;4985197;28;20218;-71
2022/07/03 02:43:15;;;;;;;2.63;2.23;;;;;;;14.40;100.00;100164.56;4990403;28;20203;-71
2022/07/03 02:45:50;;;;;;;2.60;1.87;;;;;;;14.44;100.00;100155.69;4994427;28;20214;-71
2022/07/03 02:48:40;;;;;;;3.80;2.10;;;;;;;14.36;100.00;100161.38;5003731;28;20504;-71
2022/07/03 02:51:13;;;;;;;2.10;1.90;;;;;;;14.42;100.00;100160.13;4977147;28;20230;-72
2022/07/03 02:53:44;;;;;;;2.90;2.20;;;;;;;14.55;100.00;100162.66;4992435;28;20199;-72
2022/07/03 02:56:27;;;;;;;2.87;2.30;;;;;;;14.46;100.00;100165.00;4990506;28;20265;-71
2022/07/03 02:59:37;;;;;;;2.83;2.10;;;;;;;14.41;100.00;100156.69;4989898;28;20713;-71
2022/07/03 03:02:12;;;;;;;3.77;1.73;;;;;;;14.46;100.00;100169.31;4970592;28;20223;-72
2022/07/03 03:04:43;;;;;;;2.80;2.57;;;;;;;14.47;100.00;100166.63;4996013;28;20202;-72
2022/07/03 03:07:14;;;;;;;2.33;2.07;;;;;;;14.43;100.00;100166.97;4992627;28;20245;-71
2022/07/03 03:09:45;;;;;;;2.80;2.13;;;;;;;14.48;100.00;100165.69;4989652;28;20270;-72
2022/07/03 03:12:13;;;;;;;2.70;1.87;;;;;;;14.46;100.00;100170.16;4982202;28;20237;-72
2022/07/03 03:14:41;;;;;;;2.10;1.97;;;;;;;14.57;100.00;100176.34;4993607;28;20222;-72
2022/07/03 03:17:07;;;;;;;2.60;2.20;;;;;;;14.57;100.00;100171.97;4986397;28;20221;-72
2022/07/03 03:19:39;;;;;;;5.40;2.10;;;;;;;14.55;100.00;100176.47;4993275;28;20544;-72
2022/07/03 03:22:26;;;;;;;2.10;1.90;;;;;;;14.50;100.00;100173.38;5000040;28;20241;-72
2022/07/03 03:24:51;;;;;;;2.80;2.30;;;;;;;14.57;100.00;100176.34;4994901;28;20242;-72
2022/07/03 03:27:18;;;;;;;3.90;2.20;;;;;;;14.51;100.00;100178.44;4992929;28;20189;-73
2022/07/03 03:29:44;;;;;;;3.90;2.20;;;;;;;14.58;100.00;100178.81;4983442;28;20195;-72
2022/07/03 03:32:10;;;;;;;2.77;2.53;;;;;;;14.60;100.00;100182.13;4980704;28;20223;-71
2022/07/03 03:34:37;;;;;;;2.43;2.07;;;;;;;14.65;100.00;100187.03;4985325;28;20230;-72
2022/07/03 03:37:03;;;;;;;1.90;1.80;;;;;;;14.66;100.00;100186.06;4989489;28;20180;-71
2022/07/03 03:39:28;;;;;;;2.80;1.93;;;;;;;14.61;100.00;100185.53;4994454;28;20651;-73
2022/07/03 03:41:54;;;;;;;3.27;2.20;;;;;;;14.63;100.00;100196.63;4986660;28;20767;-71
2022/07/03 03:44:19;;;;;;;2.27;1.90;;;;;;;14.56;100.00;100195.38;4995009;28;20651;-72
2022/07/03 03:46:44;;;;;;;2.43;1.87;;;;;;;14.60;100.00;100200.25;4994499;28;20639;-73
2022/07/03 03:49:10;;;;;;;2.23;1.70;;;;;;;14.64;100.00;100199.09;4994360;28;20205;-72
2022/07/03 03:51:35;;;;;;;3.67;2.07;;;;;;;14.67;100.00;100198.09;4996229;28;20234;-72
2022/07/03 03:54:03;;;;;;;4.87;2.30;;;;;;;14.73;100.00;100197.66;5000461;28;20190;-71
2022/07/03 03:56:29;;;;;;;2.90;2.40;;;;;;;14.82;100.00;100197.00;4993518;28;20187;-73
2022/07/03 03:58:54;;;;;;;2.57;2.10;;;;;;;14.91;100.00;100202.47;4994091;28;20805;-72
2022/07/03 04:01:19;;;;;;;2.83;2.20;;;;;;;14.98;100.00;100199.34;4994421;28;20229;-71
2022/07/03 04:03:44;;;;;;;2.77;2.20;;;;;;;15.09;100.00;100201.16;4999434;28;20206;-71
2022/07/03 04:06:10;;;;;;;3.70;2.10;;;;;;;15.14;100.00;100196.47;4995189;28;20286;-72
2022/07/03 04:08:35;;;;;;;3.80;2.30;;;;;;;15.11;100.00;100196.69;4992376;28;20262;-72
2022/07/03 04:11:00;;;;;;;2.57;2.10;;;;;;;15.24;100.00;100198.38;4991834;28;20252;-72
2022/07/03 04:13:26;;;;;;;3.00;2.70;;;;;;;15.27;100.00;100196.41;5001973;28;20188;-73
2022/07/03 04:15:54;;;;;;;4.93;2.77;;;;;;;15.39;100.00;100194.66;4993891;28;20624;-72
2022/07/03 04:18:19;;;;;;;3.80;2.50;;;;;;;15.39;100.00;100196.44;4992906;28;20195;-73
2022/07/03 04:20:44;;;;;;;3.07;2.20;;;;;;;15.33;100.00;100195.13;4984861;28;20291;-72
2022/07/03 04:23:10;;;;;;;2.40;2.20;;;;;;;15.35;100.00;100203.63;5003519;28;20249;-72
2022/07/03 04:25:35;;;;;;;4.20;2.67;;;;;;;15.46;100.00;100200.25;4992126;28;20303;-73
2022/07/03 04:28:00;;;;;;;2.43;2.10;;;;;;;15.57;100.00;100199.47;4993765;28;20187;-73
2022/07/03 04:30:26;;;;;;;2.57;2.37;;;;;;;15.69;100.00;100198.56;4986381;28;20254;-73
2022/07/03 04:32:52;;;;;;;3.07;2.77;;;;;;;15.80;100.00;100201.16;4989269;28;20327;-71
2022/07/03 04:35:18;;;;;;;5.37;2.80;;;;;;;15.96;100.00;100198.28;4992430;28;20192;-72
2022/07/03 04:37:44;;;;;;;3.80;2.23;;;;;;;16.11;99.25;100205.81;4993264;28;20214;-73
2022/07/03 04:40:10;;;;;;;4.13;2.80;;;;;;;16.13;99.77;100204.75;4984167;28;20183;-72
2022/07/03 04:42:36;;;;;;;2.87;2.50;;;;;;;16.19;98.56;100207.84;4992346;28;20263;-72
2022/07/03 04:45:03;;;;;;;3.17;2.87;;;;;;;16.25;97.88;100202.19;5003476;28;20237;-72
2022/07/03 04:47:29;;;;;;;6.67;3.10;;;;;;;16.38;97.00;100207.25;4993469;28;20285;-73
2022/07/03 04:49:54;;;;;;;4.27;3.10;;;;;;;16.43;96.08;100213.75;4991547;28;20187;-73
2022/07/03 04:52:19;;;;;;;3.80;2.87;;;;;;;16.39;97.64;100211.50;4998540;28;20226;-73
2022/07/03 04:54:45;;;;;;;6.13;2.90;;;;;;;16.54;97.86;100223.28;4994528;28;20180;-74
2022/07/03 04:57:10;;;;;;;6.50;3.03;;;;;;;16.67;95.77;100222.31;4993729;28;20293;-74
2022/07/03 04:59:35;;;;;;;3.57;2.83;;;;;;;16.79;93.15;100221.34;4992710;28;20191;-74
2022/07/03 05:02:01;;;;;;;4.63;3.03;;;;;;;16.87;92.58;100220.75;4998273;28;20227;-73
2022/07/03 05:04:26;;;;;;;4.53;3.50;;;;;;;16.77;89.34;100229.28;4991901;28;20215;-73
2022/07/03 05:06:51;;;;;;;5.07;2.80;;;;;;;16.81;88.96;100219.47;4995729;28;20584;-73
2022/07/03 05:09:18;;;;;;;3.90;3.50;;;;;;;16.84;88.83;100237.41;4991382;28;20230;-73
2022/07/03 05:11:44;;;;;;;4.67;3.40;;;;;;;16.96;89.20;100229.66;4984812;28;20237;-74
2022/07/03 05:14:09;;;;;;;8.70;3.60;;;;;;;17.15;86.61;100229.00;4991767;28;20179;-74
2022/07/03 05:16:34;;;;;;;5.37;3.17;;;;;;;17.34;85.86;100236.97;4993392;28;20203;-74
2022/07/03 05:18:59;;;;;;;3.70;2.90;;;;;;;17.39;84.87;100227.00;4991014;28;20192;-74
2022/07/03 05:21:25;;;;;;;5.93;3.20;;;;;;;17.58;85.39;100238.50;4984627;28;20573;-74
2022/07/03 05:23:50;;;;;;;3.77;3.07;;;;;;;17.64;83.75;100229.34;4993418;28;20195;-73
2022/07/03 05:26:16;;;;;;;5.50;3.20;;;;;;;17.80;81.70;100234.13;4991401;28;20317;-74
2022/07/03 05:28:41;;;;;;;3.70;3.17;;;;;;;18.01;80.39;100234.13;4991135;28;20576;-74
2022/07/03 05:31:07;;;;;;;5.30;3.03;;;;;;;18.04;78.34;100223.47;4984555;28;20226;-74
2022/07/03 05:33:32;;;;;;;4.23;3.00;;;;;;;18.29;76.41;100235.25;4991221;28;20179;-74
2022/07/03 05:35:58;;;;;;;4.07;3.03;;;;;;;18.49;75.40;100224.91;4990419;28;20242;-74
2022/07/03 05:41:08;;;;;;;3.47;3.17;;;;;;;18.85;72.75;100233.09;4990749;28;20760;-75
2022/07/03 05:43:34;;;;;;;6.70;3.53;;;;;;;18.90;71.62;100230.09;5007584;28;20178;-75
2022/07/03 05:45:59;;;;;;;3.77;3.40;;;;;;;19.17;70.81;100232.88;4992908;28;20343;-75
2022/07/03 05:48:24;;;;;;;4.07;3.03;;;;;;;19.32;70.22;100228.06;4991207;28;20175;-75
2022/07/03 05:50:50;;;;;;;3.20;2.90;;;;;;;19.71;68.22;100227.25;4988034;28;20325;-75
2022/07/03 05:53:15;;;;;;;3.27;2.83;;;;;;;20.22;65.67;100216.53;5007076;28;20306;-76
2022/07/03 05:55:40;;;;;;;3.50;2.73;;;;;;;20.52;63.82;100218.06;4994528;28;20678;-76
2022/07/03 05:58:06;;;;;;;2.90;2.50;;;;;;;20.61;64.77;100218.97;4983871;28;20523;-75
2022/07/03 06:00:31;;;;;;;3.60;3.07;;;;;;;21.17;61.22;100224.13;4983443;28;20248;-75
2022/07/03 06:02:57;;;;;;;5.33;2.80;;;;;;;21.56;59.19;100223.84;4990937;28;20222;-76
2022/07/03 06:05:22;;;;;;;5.70;2.97;;;;;;;21.58;56.75;100222.72;4992864;28;20298;-75
2022/07/03 06:07:47;;;;;;;4.93;3.10;;;;;;;22.21;55.62;100223.38;4990913;28;20713;-76
2022/07/03 06:10:12;;;;;;;3.00;2.70;;;;;;;22.87;54.02;100228.91;4981922;28;20276;-76
2022/07/03 06:12:38;;;;;;;6.30;2.80;;;;;;;24.22;49.54;100232.94;4990757;28;20207;-75
2022/07/03 06:15:04;;;;;;;3.50;2.80;;;;;;;24.92;46.14;100239.19;4990849;28;20652;-75
2022/07/03 06:17:29;;;;;;;3.37;2.50;;;;;;;25.65;44.01;100240.63;4991687;28;20194;-74
2022/07/03 06:19:54;;;;;;;5.67;2.27;;;;;;;26.45;40.61;100239.09;4985525;28;20196;-75
2022/07/03 06:22:19;;;;;;;3.77;2.70;;;;;;;27.32;39.55;100239.19;4996403;28;20719;-76
2022/07/03 06:24:45;;;;;;;8.55;2.45;;;;;;;29.39;35.52;100241.16;4992142;28;20239;-77
2022/07/03 06:27:10;;;;;;;3.28;2.53;;;;;;;30.24;33.39;100238.53;4992126;28;20206;-76
2022/07/03 06:29:35;;;;;;;5.43;2.90;;;;;;;31.09;32.34;100251.81;4989943;28;20281;-76
2022/07/03 06:32:01;;;;;;;2.88;2.15;;;;;;;31.91;31.15;100250.88;4983633;28;20304;-76
2022/07/03 06:34:26;;;;;;;6.10;2.38;;;;;;;31.38;31.93;100255.63;4992097;28;20206;-76
2022/07/03 06:36:51;;;;;;;3.92;1.95;;;;;;;32.49;30.09;100260.22;4990684;28;20193;-77
2022/07/03 06:39:17;;;;;;;8.57;2.58;;;;;;;31.85;30.01;100255.22;4990068;28;20184;-76
2022/07/03 06:41:42;;;;;;;2.95;2.50;;;;;;;31.67;30.19;100258.69;4983462;28;20222;-76
2022/07/03 06:44:07;;;;;;;3.53;2.83;;;;;;;32.26;29.94;100260.94;5002669;28;20229;-77
2022/07/03 06:46:32;;;;;;;5.68;2.63;;;;;;;33.54;27.83;100259.91;4993690;28;20589;-77
2022/07/03 06:48:58;;;;;;;5.30;3.20;;;;;;;32.70;28.67;100264.25;4995251;28;20640;-76
2022/07/03 06:51:23;;;;;;;3.70;2.17;;;;;;;29.60;32.74;100256.00;4995929;28;20242;-77
2022/07/03 06:53:48;;;;;;;5.05;3.00;;;;;;;30.41;31.96;100259.28;4996871;28;20184;-77
2022/07/03 06:56:14;;;;;;;4.15;2.53;;;;;;;31.44;29.96;100260.06;4994467;28;20631;-77
2022/07/03 06:58:39;;;;;;;3.97;2.50;;;;;;;32.28;28.63;100261.53;4995439;28;20222;-77
2022/07/03 07:01:04;;;;;;;2.33;2.13;;;;;;;33.20;27.78;100263.09;4975326;28;20718;-78
2022/07/03 07:03:30;;;;;;;4.70;2.70;;;;;;;33.91;27.75;100262.31;4985910;28;20184;-78
2022/07/03 07:05:55;;;;;;;4.30;3.03;;;;;;;33.49;26.93;100268.59;4997706;28;20221;-77
2022/07/03 07:08:20;;;;;;;4.63;3.03;;;;;;;33.98;27.07;100264.88;4994419;28;20645;-77
2022/07/03 07:10:45;;;;;;;7.57;2.83;;;;;;;34.41;25.80;100268.94;4990539;28;20284;-78
2022/07/03 07:13:11;;;;;;;4.03;2.97;;;;;;;35.21;24.99;100266.31;4994351;28;20266;-78
2022/07/03 07:15:36;;;;;;;5.90;2.63;;;;;;;35.43;24.73;100270.94;4986946;28;20241;-79
2022/07/03 07:18:01;;;;;;;5.82;2.75;;;;;;;36.37;23.82;100273.75;4999343;28;20196;-78
2022/07/03 07:20:26;;;;;;;2.80;2.35;;;;;;;37.26;22.56;100272.47;4986490;28;20234;-78
2022/07/03 07:22:52;;;;;;;5.60;3.15;;;;;;;35.54;24.19;100265.50;5007220;28;20201;-78
2022/07/03 07:25:17;;;;;;;3.22;2.00;;;;;;;34.34;24.83;100262.91;4993712;28;20251;-78
2022/07/03 07:27:43;;;;;;;2.47;2.05;;;;;;;33.92;26.22;100261.28;4994824;28;20187;-78
2022/07/03 07:30:09;;;;;;;3.15;2.05;;;;;;;34.52;26.00;100265.44;4964819;28;20191;-79
2022/07/03 07:32:34;;;;;;;3.38;2.10;;;;;;;35.55;24.55;100255.59;4990587;28;20222;-78
2022/07/03 07:34:59;;;;;;;4.65;2.03;;;;;;;35.53;23.80;100266.56;4984653;28;20253;-77
2022/07/03 07:37:25;;;;;;;5.38;2.20;;;;;;;34.07;25.86;100258.91;4995360;28;20187;-77
2022/07/03 07:39:50;;;;;;;3.53;1.90;;;;;;;33.91;26.16;100265.00;4992849;28;20627;-78
2022/07/03 07:42:16;;;;;;;2.17;1.40;;;;;;;35.07;24.46;100268.53;5000395;28;20325;-78
2022/07/03 07:44:42;;;;;;;1.80;1.60;;;;;;;36.16;24.16;100260.97;5002028;28;20250;-78
2022/07/03 07:47:07;;;;;;;1.08;0.90;;;;;;;35.74;23.08;100255.31;4993487;28;20203;-77
2022/07/03 07:49:32;;;;;;;1.10;1.00;;;;;;;35.87;22.82;100265.66;4994207;28;20214;-78
2022/07/03 07:51:58;;;;;;;0.85;0.80;;;;;;;36.54;22.64;100274.50;4986618;28;20780;-78
2022/07/03 07:54:24;;;;;;;4.88;0.88;;;;;;;37.35;21.63;100269.31;5000485;28;20239;-77
2022/07/03 07:56:49;;;;;;;1.92;1.00;;;;;;;39.57;19.78;100270.59;4994682;28;20194;-77
2022/07/03 07:59:14;;;;;;;1.30;1.13;;;;;;;39.60;19.49;100267.34;4992148;28;20641;-77
2022/07/03 08:07:07;;;;;;;2.25;1.00;;;;;;;39.81;19.29;100270.00;4995858;28;20198;-79
2022/07/03 08:09:32;;;;;;;1.77;1.00;;;;;;;41.67;17.46;100268.59;4992485;28;20179;-79
2022/07/03 08:11:58;;;;;;;1.90;0.98;;;;;;;40.61;17.69;100266.34;4998875;28;20661;-79
2022/07/03 08:14:23;;;;;;;2.55;0.80;;;;;;;39.47;19.24;100257.97;4994242;28;20183;-79
2022/07/03 08:16:49;;;;;;;2.03;1.02;;;;;;;39.33;18.73;100257.72;4980664;28;20603;-79
2022/07/03 08:19:14;;;;;;;1.30;0.90;;;;;;;40.38;18.43;100259.75;4989409;28;20196;-79
2022/07/03 08:21:41;;;;;;;0.75;0.75;;;;;;;39.57;18.64;100254.44;4973134;28;20226;-78
2022/07/03 08:24:06;;;;;;;1.80;1.05;;;;;;;39.36;19.01;100257.19;4989153;28;20187;-78
2022/07/03 08:26:31;;;;;;;1.05;0.90;;;;;;;38.50;20.06;100250.75;4992741;28;20187;-79
2022/07/03 08:28:57;;;;;;;1.02;0.95;;;;;;;39.82;18.68;100250.88;4993359;28;20181;-78
2022/07/03 08:31:22;;;;;;;1.25;0.93;;;;;;;40.21;17.91;100253.94;4985859;28;20694;-79
2022/07/03 08:33:47;;;;;;;3.10;0.90;;;;;;;40.96;18.34;100258.22;4992576;28;20274;-78
2022/07/03 08:36:13;;;;;;;3.03;0.73;;;;;;;41.14;17.55;100252.13;4992370;28;20199;-78
2022/07/03 08:38:38;;;;;;;7.05;0.90;;;;;;;41.84;16.89;100251.91;4993296;28;20903;-78
2022/07/03 08:41:04;;;;;;;2.78;0.60;;;;;;;42.04;16.37;100257.06;4985505;28;20235;-79
2022/07/03 08:43:29;;;;;;;1.05;0.80;;;;;;;41.26;16.62;100253.66;5003698;28;20182;-79
2022/07/03 08:45:57;;;;;;;1.73;1.00;;;;;;;41.64;17.20;100261.06;4999382;28;20561;-79
2022/07/03 08:48:24;;;;;;;0.90;0.80;;;;;;;41.16;17.12;100251.88;4993850;28;20184;-79
2022/07/03 08:50:51;;;;;;;2.45;0.73;;;;;;;40.39;17.46;100252.44;4989093;28;20238;-78
2022/07/03 08:53:17;;;;;;;1.90;0.70;;;;;;;40.01;17.40;100245.66;5003584;28;20209;-79
2022/07/03 08:55:43;;;;;;;3.70;0.88;;;;;;;39.31;18.09;100251.00;4990782;28;20661;-77
2022/07/03 08:58:10;;;;;;;4.13;0.90;;;;;;;39.17;17.90;100239.97;4991074;28;20199;-77
2022/07/03 09:00:35;;;;;;;1.08;0.77;;;;;;;38.21;19.12;100240.47;4984524;28;20222;-76
2022/07/03 09:03:04;;;;;;;2.20;0.88;;;;;;;38.16;18.52;100238.56;5004370;28;20582;-76
2022/07/03 09:05:29;;;;;;;3.03;0.70;;;;;;;39.51;17.95;100240.19;4993987;28;20298;-76
2022/07/03 09:07:58;;;;;;;1.83;0.88;;;;;;;38.81;17.82;100246.19;4992021;28;20705;-76
2022/07/03 09:10:24;;;;;;;6.95;0.85;;;;;;;37.59;18.64;100234.84;4983188;28;20706;-76
2022/07/03 09:12:49;;;;;;;0.50;0.50;;;;;;;38.60;18.50;100237.31;4988684;28;20234;-76
2022/07/03 09:15:16;;;;;;;2.85;0.75;;;;;;;39.62;17.44;100240.97;4983303;28;20180;-77
2022/07/03 09:17:57;;;;;;;0.95;0.65;;;;;;;37.57;18.91;100229.75;5006285;28;20175;-76
2022/07/03 09:20:30;;;;;;;5.32;0.77;;;;;;;37.51;18.36;100225.41;4983837;28;20249;-74
2022/07/03 09:23:09;;;;;;;1.42;0.60;;;;;;;38.11;17.47;100228.59;4991628;28;20562;-76
2022/07/03 09:25:34;;;;;;;2.15;0.80;;;;;;;38.57;18.47;100229.78;4991341;28;20718;-75
2022/07/03 09:27:59;;;;;;;1.95;1.02;;;;;;;39.11;17.51;100231.09;4992931;28;20294;-76
2022/07/03 09:30:26;;;;;;;3.85;1.00;;;;;;;39.51;17.96;100221.34;4985366;28;20234;-76
2022/07/03 09:32:52;;;;;;;0.57;0.50;;;;;;;38.45;17.34;100229.25;5004618;28;20175;-76
2022/07/03 09:35:22;;;;;;;0.82;0.50;;;;;;;38.81;18.60;100231.97;4991352;28;20191;-75
2022/07/03 09:37:56;;;;;;;4.30;0.82;;;;;;;37.39;18.80;100227.50;4990836;28;20231;-75
2022/07/03 09:40:24;;;;;;;1.77;0.90;;;;;;;38.81;18.85;100222.00;4983507;28;20250;-76
2022/07/03 09:42:59;;;;;;;2.50;0.77;;;;;;;39.72;16.93;100232.09;4991486;28;20187;-76
2022/07/03 09:45:25;;;;;;;1.90;0.70;;;;;;;41.35;15.56;100238.44;5001326;28;20265;-76
2022/07/03 09:47:50;;;;;;;0.80;0.73;;;;;;;41.00;15.97;100232.34;4992353;28;20191;-76
2022/07/03 09:50:15;;;;;;;6.65;0.85;;;;;;;38.58;18.09;100231.41;4982307;28;20196;-76
2022/07/03 09:52:42;;;;;;;1.95;0.80;;;;;;;37.18;19.32;100226.50;4992129;28;20541;-76
2022/07/03 09:55:12;;;;;;;3.35;0.88;;;;;;;36.23;19.54;100225.94;4993508;28;20191;-75
2022/07/03 09:57:59;;;;;;;8.10;0.85;;;;;;;38.11;19.64;100220.56;4992207;28;20206;-75
2022/07/03 10:00:25;;;;;;;1.70;1.02;;;;;;;39.11;18.12;100216.88;4983450;28;20272;-75
2022/07/03 10:03:09;;;;;;;1.77;0.80;;;;;;;38.01;19.50;100209.78;5004847;28;20222;-75
2022/07/03 10:05:37;;;;;;;1.40;0.40;;;;;;;39.44;17.58;100212.78;4997919;28;20261;-75
2022/07/03 10:08:03;;;;;;;0.73;0.63;;;;;;;39.25;16.67;100217.94;4996829;28;20288;-75
2022/07/03 10:10:31;;;;;;;2.95;0.70;;;;;;;41.22;15.49;100226.44;4980354;28;20231;-75
2022/07/03 10:12:57;;;;;;;1.10;0.55;;;;;;;42.04;15.00;100218.44;4995010;28;20267;-76
2022/07/03 10:15:24;;;;;;;1.25;0.60;;;;;;;40.20;15.89;100217.31;4992500;28;20534;-76
2022/07/03 10:17:56;;;;;;;1.45;0.60;;;;;;;40.82;15.67;100221.16;4992394;28;20279;-75
2022/07/03 10:20:25;;;;;;;4.18;0.60;;;;;;;38.59;17.81;100212.31;4983076;28;20274;-76
2022/07/03 10:22:51;;;;;;;2.30;0.50;;;;;;;37.08;18.62;100198.59;4990671;28;20270;-76
2022/07/03 10:25:17;;;;;;;4.55;0.80;;;;;;;37.96;17.85;100207.09;4992148;28;20262;-75
2022/07/03 10:27:48;;;;;;;0.93;0.70;;;;;;;38.72;18.23;100210.97;4990527;28;20657;-75
2022/07/03 10:30:22;;;;;;;3.50;0.57;;;;;;;38.98;18.05;100205.59;4983185;28;20186;-75
2022/07/03 10:32:50;;;;;;;1.88;0.65;;;;;;;41.04;15.55;100214.47;4990952;28;20178;-75
2022/07/03 10:35:20;;;;;;;3.97;0.82;;;;;;;40.07;17.09;100216.00;4990594;28;20956;-75
2022/07/03 10:38:17;;;;;;;1.50;0.77;;;;;;;36.73;20.98;100207.13;4990698;28;20251;-75
2022/07/03 10:46:28;;;;;;;1.58;0.88;;;;;;;38.08;18.89;100213.03;4991755;28;20222;-74
2022/07/03 10:48:58;;;;;;;1.50;0.60;;;;;;;37.34;19.41;100197.91;4990211;28;20206;-74
2022/07/03 10:51:24;;;;;;;2.50;0.68;;;;;;;36.49;21.25;100202.94;4983714;28;20226;-75
2022/07/03 10:53:50;;;;;;;2.25;0.82;;;;;;;35.38;22.25;100194.94;5004142;28;20178;-74
2022/07/03 10:56:15;;;;;;;1.80;0.70;;;;;;;33.60;23.53;100195.81;4991910;28;20249;-76
2022/07/03 10:58:58;;;;;;;1.23;0.90;;;;;;;32.65;25.33;100197.56;4990050;28;20187;-74
2022/07/03 11:01:30;;;;;;;1.35;0.52;;;;;;;32.21;25.00;100196.94;4962968;28;20270;-75
2022/07/03 11:04:01;;;;;;;1.75;1.00;;;;;;;31.81;24.84;100190.22;4985996;28;20180;-75
2022/07/03 11:06:48;;;;;;;1.83;0.90;;;;;;;31.50;26.58;100187.44;4992625;28;20231;-75
2022/07/03 11:09:14;;;;;;;3.58;1.02;;;;;;;31.84;26.60;100179.97;4975112;28;20192;-74
2022/07/03 11:11:56;;;;;;;1.23;0.80;;;;;;;31.69;25.57;100187.47;4993356;28;20262;-75
2022/07/03 11:14:26;;;;;;;0.95;0.80;;;;;;;31.97;25.50;100183.50;4992542;28;20195;-74
2022/07/03 11:17:21;;;;;;;1.58;0.73;;;;;;;31.18;26.69;100174.25;4995759;28;20269;-74
2022/07/03 11:22:43;;;;;;;5.45;0.93;;;;;;;30.75;27.04;100162.53;4977614;28;20235;-73
2022/07/03 11:25:09;;;;;;;3.05;0.90;;;;;;;30.85;27.48;100166.53;5005743;28;20244;-73
2022/07/03 11:27:34;;;;;;;2.80;0.95;;;;;;;30.84;28.18;100156.97;4991561;28;20187;-74
2022/07/03 11:30:00;;;;;;;2.33;0.80;;;;;;;31.29;26.55;100159.44;4989718;28;20203;-74
2022/07/03 11:32:43;;;;;;;1.52;0.63;;;;;;;31.72;25.53;100160.47;4960736;28;20237;-74
2022/07/03 11:35:08;;;;;;;1.38;0.70;;;;;;;31.04;25.54;100130.22;4992546;28;20195;-74
2022/07/03 11:37:34;;;;;;;1.27;0.60;;;;;;;30.46;25.90;100137.38;4993644;28;20710;-74
2022/07/03 11:40:03;;;;;;;1.67;0.88;;;;;;;30.65;26.26;100142.78;4991815;28;20612;-74
2022/07/03 11:42:34;;;;;;;2.65;0.85;;;;;;;30.59;26.38;100145.28;4983836;28;20569;-74
2022/07/03 11:45:00;;;;;;;2.25;0.70;;;;;;;30.52;26.08;100136.56;4994116;28;20670;-75